Terminal Aerodrome Forecast
Issued by NWS Amarillo, TX

Home | Current Version | Previous Version | Text Only | Print | Product List | Glossary On
Versions: 1 2 3 4 5 6 7 8 9 10 11 12 13
212
FTUS44 KAMA 140520
TAFDHT
TAF
KDHT 140520Z 1406/1506 32014KT P6SM BKN300
     FM140900 36019G28KT P6SM BKN300
     FM141300 02010KT P6SM SCT300
     FM142100 16008KT P6SM SCT300=

USA.gov is the U.S. government's official web portal to all federal, state and local government web resources and services.